createdAt,value
2018-11-01T00:01:05.373Z,77516.44
2018-11-01T00:03:32.726Z,77514.44
2018-11-01T00:05:59.560Z,77529.45
2018-11-01T00:08:26.433Z,77524.45
2018-11-01T00:10:53.285Z,77535.45
2018-11-01T00:13:21.140Z,77537.45
2018-11-01T00:15:47.930Z,77531.45
2018-11-01T00:18:16.316Z,77539.45
2018-11-01T00:20:44.741Z,77545.47
2018-11-01T00:23:12.495Z,77531.45
2018-11-01T00:25:41.413Z,77544.47
2018-11-01T00:28:09.160Z,77543.46
2018-11-01T00:30:35.991Z,77547.47
2018-11-01T00:33:02.833Z,77552.47
2018-11-01T00:35:30.455Z,77541.46
2018-11-01T00:37:57.297Z,77515.44
2018-11-01T00:40:24.130Z,77535.45
2018-11-01T00:42:50.996Z,77543.46
2018-11-01T00:45:17.862Z,77524.45
2018-11-01T00:47:45.072Z,77508.43
2018-11-01T00:50:14.095Z,77515.44
2018-11-01T00:52:41.543Z,77520.44
2018-11-01T00:55:09.643Z,77536.45
2018-11-01T00:57:36.474Z,77530.45
2018-11-01T01:00:03.448Z,77515.44
2018-11-01T01:02:31.208Z,77515.44
2018-11-01T01:04:58.071Z,77532.45
2018-11-01T01:07:24.943Z,77535.45
2018-11-01T01:09:51.829Z,77521.44
2018-11-01T01:12:19.639Z,77511.43
2018-11-01T01:14:47.433Z,77513.44
2018-11-01T01:17:15.306Z,77512.44
2018-11-01T01:19:43.925Z,77508.43
2018-11-01T01:22:10.794Z,77503.42
2018-11-01T01:24:37.631Z,77503.42
2018-11-01T01:27:05.336Z,77501.42
2018-11-01T01:29:33.055Z,77489.41
2018-11-01T01:31:59.880Z,77495.41
2018-11-01T01:34:26.736Z,77493.41
2018-11-01T01:36:53.575Z,77495.41
2018-11-01T01:39:20.433Z,77491.41
2018-11-01T01:41:47.273Z,77499.42
2018-11-01T01:44:14.837Z,77495.41
2018-11-01T01:46:41.662Z,77498.42
2018-11-01T01:49:09.576Z,77495.41
2018-11-01T01:51:36.400Z,77502.42
2018-11-01T01:54:04.030Z,77496.42
2018-11-01T01:56:30.864Z,77497.42
2018-11-01T01:58:57.697Z,77495.41
2018-11-01T02:01:24.504Z,77497.42
2018-11-01T02:03:51.334Z,77500.42
2018-11-01T02:06:18.169Z,77503.42
2018-11-01T02:08:45.021Z,77501.42
2018-11-01T02:11:11.873Z,77503.42
2018-11-01T02:13:38.674Z,77492.41
2018-11-01T02:16:06.424Z,77485.41
2018-11-01T02:18:34.069Z,77483.41
2018-11-01T02:21:01.917Z,77516.44
2018-11-01T02:23:29.661Z,77492.41
2018-11-01T02:25:56.586Z,77493.41
2018-11-01T02:28:23.420Z,77498.42
2018-11-01T02:30:51.173Z,77506.42
2018-11-01T02:33:18.016Z,77507.42
2018-11-01T02:35:45.819Z,77485.41
2018-11-01T02:38:12.786Z,77490.41
2018-11-01T02:40:39.521Z,77475.39
2018-11-01T02:43:06.375Z,77499.42
2018-11-01T02:45:34.344Z,77497.42
2018-11-01T02:48:01.181Z,77466.39
2018-11-01T02:50:28.019Z,77509.43
2018-11-01T02:52:55.688Z,77500.42
2018-11-01T02:55:23.430Z,77497.42
2018-11-01T02:57:50.250Z,77521.44
2018-11-01T03:00:18.077Z,77495.41
2018-11-01T03:02:44.929Z,77499.42
2018-11-01T03:05:14.397Z,77499.42
2018-11-01T03:07:41.310Z,77513.44
2018-11-01T03:10:08.935Z,77514.44
2018-11-01T03:12:36.830Z,77509.43
2018-11-01T03:15:04.012Z,77517.44
2018-11-01T03:17:31.821Z,77495.41
2018-11-01T03:19:58.650Z,77492.41
2018-11-01T03:22:26.284Z,77510.43
2018-11-01T03:24:53.181Z,77522.44
2018-11-01T03:27:20.971Z,77511.43
2018-11-01T03:29:49.552Z,77507.42
2018-11-01T03:32:17.332Z,77505.42
2018-11-01T03:34:44.939Z,77509.43
2018-11-01T03:37:11.700Z,77475.39
2018-11-01T03:39:39.468Z,77465.38
2018-11-01T03:42:07.197Z,77502.42
2018-11-01T03:44:34.797Z,77491.41
2018-11-01T03:47:01.620Z,77500.42
2018-11-01T03:49:28.466Z,77514.44
2018-11-01T03:51:56.237Z,77487.41
2018-11-01T03:54:24.152Z,77503.42
2018-11-01T03:56:51.978Z,77510.43
2018-11-01T03:59:18.800Z,77505.42
2018-11-01T04:01:45.642Z,77489.41
2018-11-01T04:04:12.467Z,77493.41
2018-11-01T04:06:40.233Z,77508.43
2018-11-01T04:09:14.073Z,77502.42
2018-11-01T04:11:41.204Z,77492.41
2018-11-01T04:14:08.595Z,77503.42
2018-11-01T04:16:35.900Z,77481.40
2018-11-01T04:19:02.732Z,77474.39
2018-11-01T04:21:29.839Z,77486.41
2018-11-01T04:23:56.664Z,77483.41
2018-11-01T04:26:23.501Z,77499.42
2018-11-01T04:28:51.162Z,77482.41
2018-11-01T04:31:18.993Z,77473.39
2018-11-01T04:33:46.656Z,77463.38
2018-11-01T04:36:14.172Z,77486.41
2018-11-01T04:38:41.081Z,77482.41
2018-11-01T04:41:07.912Z,77465.38
2018-11-01T04:43:34.750Z,77463.38
2018-11-01T04:46:01.591Z,77464.38
2018-11-01T04:48:28.412Z,77467.39
2018-11-01T04:50:55.245Z,77468.39
2018-11-01T04:53:22.071Z,77485.41
2018-11-01T04:55:48.991Z,77461.38
2018-11-01T04:58:15.917Z,77437.36
2018-11-01T05:00:42.743Z,77438.36
2018-11-01T05:03:09.689Z,77430.35
2018-11-01T05:05:36.809Z,77429.35
2018-11-01T05:08:03.567Z,77442.36
2018-11-01T05:10:30.366Z,77452.38
2018-11-01T05:12:57.233Z,77439.36
2018-11-01T05:15:24.192Z,77439.36
2018-11-01T05:17:50.981Z,77452.38
2018-11-01T05:20:18.735Z,77448.37
2018-11-01T05:22:46.692Z,77442.36
2018-11-01T05:25:14.331Z,77464.38
2018-11-01T05:27:41.214Z,77487.41
2018-11-01T05:30:08.943Z,77471.39
2018-11-01T05:32:35.914Z,77459.38
2018-11-01T05:35:02.754Z,77470.39
2018-11-01T05:37:30.510Z,77478.40
2018-11-01T05:39:57.506Z,77421.34
2018-11-01T05:42:26.059Z,77365.29
2018-11-01T05:44:52.877Z,77339.27
2018-11-01T05:47:19.757Z,77336.27
2018-11-01T05:49:47.451Z,77330.25
2018-11-01T05:52:14.961Z,77324.25
2018-11-01T05:54:41.890Z,77319.25
2018-11-01T05:57:09.616Z,77308.23
2018-11-01T05:59:36.454Z,77298.23
2018-11-01T06:02:07.880Z,77283.21
2018-11-01T06:04:35.683Z,77272.20
2018-11-01T06:07:02.627Z,77269.20
2018-11-01T06:09:29.465Z,77271.20
2018-11-01T06:11:57.230Z,77268.20
2018-11-01T06:14:24.103Z,77260.19
2018-11-01T06:16:51.013Z,77251.18
2018-11-01T06:19:17.882Z,77248.18
2018-11-01T06:21:45.996Z,77249.18
2018-11-01T06:24:14.037Z,77247.17
2018-11-01T06:26:41.860Z,77240.17
2018-11-01T06:29:10.077Z,77232.16
2018-11-01T06:31:37.775Z,77225.16
2018-11-01T06:34:04.873Z,77227.16
2018-11-01T06:36:31.810Z,77225.16
2018-11-01T06:38:58.787Z,77250.18
2018-11-01T06:41:25.680Z,77250.18
2018-11-01T06:43:53.419Z,77236.17
2018-11-01T06:46:20.429Z,77220.16
2018-11-01T06:48:47.319Z,77217.16
2018-11-01T06:51:15.204Z,77219.16
2018-11-01T06:53:42.084Z,77218.16
2018-11-01T06:56:09.723Z,77211.14
2018-11-01T06:58:36.720Z,77214.15
2018-11-01T07:01:03.567Z,77217.16
2018-11-01T07:03:31.337Z,77205.14
2018-11-01T07:05:59.097Z,77204.14
2018-11-01T07:08:25.966Z,77197.13
2018-11-01T07:10:52.793Z,77195.13
2018-11-01T07:13:20.621Z,77198.13
2018-11-01T07:15:47.424Z,77207.14
2018-11-01T07:18:15.237Z,77207.14
2018-11-01T07:20:42.255Z,77196.13
2018-11-01T07:23:09.124Z,77189.13
2018-11-01T07:25:36.064Z,77193.13
2018-11-01T07:28:02.935Z,77186.13
2018-11-01T07:30:30.743Z,77182.12
2018-11-01T07:32:57.623Z,77170.11
2018-11-01T07:35:24.622Z,77167.11
2018-11-01T07:37:52.362Z,77169.11
2018-11-01T07:40:19.554Z,77166.11
2018-11-01T07:42:46.399Z,77163.10
2018-11-01T07:45:14.836Z,77165.10
2018-11-01T07:47:43.573Z,77171.11
2018-11-01T07:50:12.458Z,77174.11
2018-11-01T07:52:39.875Z,77149.09
2018-11-01T07:55:07.461Z,77143.08
2018-11-01T07:57:34.327Z,77140.08
2018-11-01T08:00:01.164Z,77140.08
2018-11-01T08:02:28.060Z,77143.08
2018-11-01T08:04:55.791Z,77148.09
2018-11-01T08:07:22.730Z,77159.09
2018-11-01T08:09:49.506Z,77152.09
2018-11-01T08:12:16.395Z,77155.09
2018-11-01T08:14:43.987Z,77141.08
2018-11-01T08:17:11.615Z,77123.06
2018-11-01T08:19:38.517Z,77128.07
2018-11-01T08:22:05.564Z,77141.08
2018-11-01T08:24:32.436Z,77131.08
2018-11-01T08:26:59.281Z,77115.06
2018-11-01T08:29:27.024Z,77106.05
2018-11-01T08:31:54.637Z,77115.06
2018-11-01T08:34:22.455Z,77135.08
2018-11-01T08:36:50.102Z,77150.09
2018-11-01T08:39:17.004Z,77132.08
2018-11-01T08:41:44.859Z,77131.08
2018-11-01T08:44:12.628Z,77138.08
2018-11-01T08:46:39.479Z,77120.06
2018-11-01T08:49:06.920Z,77116.06
2018-11-01T08:51:33.719Z,77111.05
2018-11-01T08:54:00.572Z,77102.05
2018-11-01T08:56:27.389Z,77106.05
2018-11-01T08:58:54.227Z,77101.05
2018-11-01T09:01:21.077Z,77103.05
2018-11-01T09:03:47.910Z,77102.05
2018-11-01T09:06:15.067Z,77107.05
2018-11-01T09:08:41.930Z,77107.05
2018-11-01T09:11:08.677Z,77103.05
2018-11-01T09:13:35.509Z,77109.05
2018-11-01T09:16:02.354Z,77111.05
2018-11-01T09:18:29.159Z,77102.05
2018-11-01T09:20:55.977Z,77102.05
2018-11-01T09:23:22.815Z,77101.05
2018-11-01T09:25:50.444Z,77097.05
2018-11-01T09:28:17.292Z,77097.05
2018-11-01T09:30:45.160Z,77099.05
2018-11-01T09:33:11.985Z,77095.05
2018-11-01T09:35:38.844Z,77094.05
2018-11-01T09:38:05.716Z,77090.03
2018-11-01T09:40:32.552Z,77087.03
2018-11-01T09:42:59.419Z,77092.04
2018-11-01T09:45:26.253Z,77095.05
2018-11-01T09:47:53.374Z,77091.03
2018-11-01T09:50:20.026Z,77082.03
2018-11-01T09:52:46.831Z,77084.03
2018-11-01T09:55:14.304Z,77090.03
2018-11-01T09:57:41.993Z,77085.03
2018-11-01T10:00:10.483Z,77077.02
2018-11-01T10:02:38.368Z,77076.02
2018-11-01T10:05:06.538Z,77070.02
2018-11-01T10:07:33.369Z,77070.02
2018-11-01T10:10:01.124Z,77059.01
2018-11-01T10:12:28.889Z,77058.01
2018-11-01T10:14:55.792Z,77064.02
2018-11-01T10:17:23.955Z,77059.01
2018-11-01T10:19:50.500Z,77054.00
2018-11-01T10:22:18.382Z,77050.00
2018-11-01T10:24:45.256Z,77045.00
2018-11-01T10:27:19.513Z,77037.99
2018-11-01T10:29:41.822Z,77029.98
2018-11-01T10:32:09.444Z,77027.98
2018-11-01T10:34:37.105Z,77029.98
2018-11-01T10:37:04.822Z,77025.98
2018-11-01T10:39:32.512Z,77018.98
2018-11-01T10:42:01.303Z,77015.97
2018-11-01T10:44:28.982Z,77010.97
2018-11-01T10:46:56.625Z,77012.97
2018-11-01T10:49:24.438Z,77009.97
2018-11-01T10:51:51.368Z,77000.96
2018-11-01T10:54:18.277Z,76994.95
2018-11-01T10:56:45.187Z,76994.95
2018-11-01T10:59:12.037Z,76990.95
2018-11-01T11:01:43.783Z,76985.95
2018-11-01T11:04:11.072Z,76990.95
2018-11-01T11:06:38.005Z,76987.95
2018-11-01T11:09:05.996Z,76988.95
2018-11-01T11:11:32.829Z,76982.95
2018-11-01T11:13:59.671Z,76983.95
2018-11-01T11:16:26.508Z,76979.94
2018-11-01T11:18:53.342Z,76976.94
2018-11-01T11:21:20.299Z,76963.93
2018-11-01T11:23:47.153Z,76964.93
2018-11-01T11:26:16.420Z,76957.92
2018-11-01T11:28:44.300Z,76961.92
2018-11-01T11:31:12.095Z,76951.92
2018-11-01T11:33:39.136Z,76953.92
2018-11-01T11:36:06.790Z,76947.91
2018-11-01T11:38:34.487Z,76952.92
2018-11-01T11:41:02.264Z,76958.92
2018-11-01T11:43:30.018Z,76952.92
2018-11-01T11:45:57.880Z,76948.92
2018-11-01T11:48:25.609Z,76945.91
2018-11-01T11:50:52.450Z,76940.91
2018-11-01T11:53:20.261Z,76935.91
2018-11-01T11:55:48.038Z,76930.91
2018-11-01T11:58:15.729Z,76942.91
2018-11-01T12:00:44.161Z,76944.91
2018-11-01T12:03:11.779Z,76934.91
2018-11-01T12:05:38.696Z,76929.91
2018-11-01T12:08:06.319Z,76939.91
2018-11-01T12:10:33.167Z,76938.91
2018-11-01T12:13:00.934Z,76935.91
2018-11-01T12:15:27.811Z,76928.91
2018-11-01T12:17:55.597Z,76923.90
2018-11-01T12:20:23.327Z,76928.91
2018-11-01T12:22:50.587Z,76933.91
2018-11-01T12:25:17.469Z,76930.91
2018-11-01T12:27:45.260Z,76928.91
2018-11-01T12:30:14.165Z,76929.91
2018-11-01T12:32:41.821Z,76930.91
2018-11-01T12:35:10.145Z,76927.90
2018-11-01T12:37:38.038Z,76930.91
2018-11-01T12:40:06.360Z,76926.90
2018-11-01T12:42:33.185Z,76924.90
2018-11-01T12:45:00.978Z,76922.89
2018-11-01T12:47:28.891Z,76922.89
2018-11-01T12:49:56.702Z,76918.89
2018-11-01T12:52:24.347Z,76914.89
2018-11-01T12:54:51.188Z,76911.89
2018-11-01T12:57:18.896Z,76904.88
2018-11-01T12:59:45.764Z,76895.88
2018-11-01T13:02:14.246Z,76883.86
2018-11-01T13:04:41.878Z,76886.86
2018-11-01T13:07:09.512Z,76876.86
2018-11-01T13:09:37.276Z,76880.86
2018-11-01T13:12:04.999Z,76873.86
2018-11-01T13:14:32.641Z,76877.86
2018-11-01T13:16:59.539Z,76870.85
2018-11-01T13:19:27.192Z,76866.84
2018-11-01T13:21:54.809Z,76857.84
2018-11-01T13:24:22.588Z,76856.84
2018-11-01T13:26:49.481Z,76854.84
2018-11-01T13:29:17.270Z,76853.84
2018-11-01T13:31:45.113Z,76851.84
2018-11-01T13:34:12.162Z,76836.83
2018-11-01T13:36:39.959Z,76816.81
2018-11-01T13:39:07.793Z,76812.81
2018-11-01T13:41:35.628Z,76805.80
2018-11-01T13:44:03.303Z,76810.80
2018-11-01T13:46:31.180Z,76813.81
2018-11-01T13:48:59.271Z,76823.81
2018-11-01T13:51:26.090Z,76829.82
2018-11-01T13:53:53.939Z,76829.82
2018-11-01T13:56:21.828Z,76833.83
2018-11-01T13:58:49.594Z,76829.82
2018-11-01T14:01:17.324Z,76831.82
2018-11-01T14:03:45.189Z,76827.82
2018-11-01T14:06:12.036Z,76828.82
2018-11-01T14:08:38.943Z,76821.81
2018-11-01T14:11:05.779Z,76823.81
2018-11-01T14:13:33.607Z,76822.81
2018-11-01T14:16:00.397Z,76814.81
2018-11-01T14:18:28.230Z,76820.81
2018-11-01T14:20:56.108Z,76820.81
2018-11-01T14:23:23.930Z,76823.81
2018-11-01T14:25:50.787Z,76825.81
2018-11-01T14:28:18.608Z,76830.82
2018-11-01T14:30:46.361Z,76831.82
2018-11-01T14:33:14.801Z,76825.81
2018-11-01T14:35:42.583Z,76821.81
2018-11-01T14:38:09.422Z,76822.81
2018-11-01T14:40:37.067Z,76830.82
2018-11-01T14:43:04.772Z,76840.83
2018-11-01T14:45:31.609Z,76846.83
2018-11-01T14:47:59.398Z,76843.83
2018-11-01T14:50:26.253Z,76834.83
2018-11-01T14:52:53.269Z,76834.83
2018-11-01T14:55:20.685Z,76835.83
2018-11-01T14:57:48.419Z,76840.83
2018-11-01T15:00:14.382Z,76853.84
2018-11-01T15:02:41.248Z,76853.84
2018-11-01T15:05:08.357Z,76852.84
2018-11-01T15:07:35.243Z,76846.83
2018-11-01T15:10:02.102Z,76837.83
2018-11-01T15:12:28.920Z,76837.83
2018-11-01T15:14:55.795Z,76835.83
2018-11-01T15:17:22.662Z,76834.83
2018-11-01T15:19:49.507Z,76836.83
2018-11-01T15:22:17.197Z,76827.82
2018-11-01T15:24:44.183Z,76816.81
2018-11-01T15:27:11.036Z,76807.80
2018-11-01T15:29:38.010Z,76801.80
2018-11-01T15:32:04.807Z,76808.80
2018-11-01T15:34:33.357Z,76809.80
2018-11-01T15:37:00.362Z,76807.80
2018-11-01T15:39:27.236Z,76810.80
2018-11-01T15:41:54.253Z,76805.80
2018-11-01T15:44:21.127Z,76794.79
2018-11-01T15:46:48.936Z,76798.80
2018-11-01T15:49:15.853Z,76793.79
2018-11-01T15:51:44.488Z,76796.80
2018-11-01T15:54:12.301Z,76806.80
2018-11-01T15:56:40.078Z,76805.80
2018-11-01T15:59:07.928Z,76800.80
2018-11-01T16:01:35.598Z,76808.80
2018-11-01T16:04:03.394Z,76809.80
2018-11-01T16:06:30.226Z,76806.80
2018-11-01T16:08:57.958Z,76802.80
2018-11-01T16:11:25.813Z,76805.80
2018-11-01T16:13:52.829Z,76807.80
2018-11-01T16:16:20.744Z,76830.82
2018-11-01T16:18:55.448Z,76838.83
2018-11-01T16:21:23.656Z,76835.83
2018-11-01T16:23:50.789Z,76839.83
2018-11-01T16:26:19.046Z,76830.82
2018-11-01T16:28:46.717Z,76824.81
2018-11-01T16:31:14.950Z,76818.81
2018-11-01T16:33:42.655Z,76818.81
2018-11-01T16:36:09.501Z,76811.80
2018-11-01T16:38:36.339Z,76811.80
2018-11-01T16:41:03.192Z,76805.80
2018-11-01T16:43:30.082Z,76804.80
2018-11-01T16:45:56.960Z,76808.80
2018-11-01T16:48:24.609Z,76814.81
2018-11-01T16:50:52.634Z,76815.81
2018-11-01T16:53:19.517Z,76818.81
2018-11-01T16:55:47.305Z,76818.81
2018-11-01T16:58:15.156Z,76817.81
2018-11-01T17:00:42.104Z,76818.81
2018-11-01T17:03:09.844Z,76818.81
2018-11-01T17:05:37.636Z,76817.81
2018-11-01T17:08:05.419Z,76814.81
2018-11-01T17:10:33.264Z,76811.80
2018-11-01T17:13:00.166Z,76813.81
2018-11-01T17:15:28.039Z,76815.81
2018-11-01T17:17:54.902Z,76811.80
2018-11-01T17:20:22.822Z,76810.80
2018-11-01T17:22:49.685Z,76808.80
2018-11-01T17:25:16.555Z,76798.80
2018-11-01T17:27:44.467Z,76802.80
2018-11-01T17:30:12.333Z,76806.80
2018-11-01T17:32:45.776Z,76804.80
2018-11-01T17:35:14.492Z,76805.80
2018-11-01T17:37:42.301Z,76808.80
2018-11-01T17:40:10.071Z,76807.80
2018-11-01T17:42:36.938Z,76803.80
2018-11-01T17:45:04.233Z,76803.80
2018-11-01T17:47:31.104Z,76808.80
2018-11-01T17:49:57.977Z,76808.80
2018-11-01T17:52:24.836Z,76809.80
2018-11-01T17:54:51.696Z,76818.81
2018-11-01T17:57:18.557Z,76818.81
2018-11-01T17:59:45.385Z,76815.81
2018-11-01T18:02:13.932Z,76813.81
2018-11-01T18:04:41.774Z,76815.81
2018-11-01T18:07:08.706Z,76818.81
2018-11-01T18:09:36.442Z,76814.81
2018-11-01T18:12:03.436Z,76810.80
2018-11-01T18:14:30.457Z,76802.80
2018-11-01T18:16:58.226Z,76806.80
2018-11-01T18:19:25.173Z,76800.80
2018-11-01T18:21:53.001Z,76804.80
2018-11-01T18:24:19.939Z,76802.80
2018-11-01T18:26:46.812Z,76792.79
2018-11-01T18:29:15.789Z,76788.78
2018-11-01T18:31:44.237Z,76784.78
2018-11-01T18:34:11.952Z,76781.78
2018-11-01T18:36:39.776Z,76781.78
2018-11-01T18:39:07.189Z,76783.78
2018-11-01T18:41:33.986Z,76786.78
2018-11-01T18:44:00.866Z,76790.79
2018-11-01T18:46:28.634Z,76791.79
2018-11-01T18:48:55.484Z,76790.79
2018-11-01T18:51:23.185Z,76793.79
2018-11-01T18:53:51.104Z,76796.80
2018-11-01T18:56:18.821Z,76789.78
2018-11-01T18:58:46.671Z,76799.80
2018-11-01T19:01:15.355Z,76803.80
2018-11-01T19:03:42.217Z,76797.80
2018-11-01T19:06:10.178Z,76806.80
2018-11-01T19:08:38.072Z,76808.80
2018-11-01T19:11:05.073Z,76809.80
2018-11-01T19:13:32.903Z,76803.80
2018-11-01T19:16:00.837Z,76811.80
2018-11-01T19:18:27.679Z,76813.81
2018-11-01T19:20:54.572Z,76812.81
2018-11-01T19:23:22.373Z,76806.80
2018-11-01T19:25:50.234Z,76808.80
2018-11-01T19:28:17.118Z,76812.81
2018-11-01T19:30:44.914Z,76820.81
2018-11-01T19:33:11.868Z,76825.81
2018-11-01T19:35:39.611Z,76828.82
2018-11-01T19:38:07.443Z,76830.82
2018-11-01T19:40:34.403Z,76830.82
2018-11-01T19:43:02.279Z,76833.83
2018-11-01T19:45:30.135Z,76838.83
2018-11-01T19:47:58.046Z,76840.83
2018-11-01T19:50:25.840Z,76845.83
2018-11-01T19:52:52.752Z,76846.83
2018-11-01T19:55:19.616Z,76850.84
2018-11-01T19:57:47.544Z,76851.84
2018-11-01T20:00:15.702Z,76854.84
2018-11-01T20:02:42.878Z,76858.84
2018-11-01T20:05:10.479Z,76859.84
2018-11-01T20:07:38.238Z,76861.84
2018-11-01T20:10:06.565Z,76860.84
2018-11-01T20:12:33.447Z,76873.86
2018-11-01T20:15:01.283Z,76877.86
2018-11-01T20:17:28.257Z,76875.86
2018-11-01T20:19:56.176Z,76874.86
2018-11-01T20:22:24.159Z,76873.86
2018-11-01T20:24:51.058Z,76880.86
2018-11-01T20:27:18.876Z,76882.86
2018-11-01T20:29:45.815Z,76890.87
2018-11-01T20:32:12.777Z,76890.87
2018-11-01T20:34:40.556Z,76896.88
2018-11-01T20:37:08.258Z,76901.88
2018-11-01T20:39:35.216Z,76906.88
2018-11-01T20:42:02.383Z,76905.88
2018-11-01T20:44:29.433Z,76902.88
2018-11-01T20:46:56.296Z,76905.88
2018-11-01T20:49:23.878Z,76914.89
2018-11-01T20:51:50.723Z,76913.89
2018-11-01T20:54:17.753Z,76914.89
2018-11-01T20:56:45.255Z,76912.89
2018-11-01T20:59:12.362Z,76905.88
2018-11-01T21:01:39.282Z,76910.89
2018-11-01T21:04:06.236Z,76907.88
2018-11-01T21:06:33.323Z,76914.89
2018-11-01T21:09:00.379Z,76927.90
2018-11-01T21:11:27.510Z,76927.90
2018-11-01T21:13:55.134Z,76924.90
2018-11-01T21:16:22.178Z,76926.90
2018-11-01T21:18:49.025Z,76920.89
2018-11-01T21:21:15.886Z,76932.91
2018-11-01T21:23:43.712Z,76933.91
2018-11-01T21:26:10.948Z,76936.91
2018-11-01T21:28:37.947Z,76932.91
2018-11-01T21:31:05.214Z,76938.91
2018-11-01T21:33:32.130Z,76938.91
2018-11-01T21:35:59.128Z,76942.91
2018-11-01T21:38:25.918Z,76948.92
2018-11-01T21:40:52.776Z,76947.91
2018-11-01T21:43:19.602Z,76953.92
2018-11-01T21:45:46.471Z,76962.93
2018-11-01T21:48:13.946Z,76958.92
2018-11-01T21:50:40.827Z,76956.92
2018-11-01T21:53:07.783Z,76967.94
2018-11-01T21:55:35.057Z,76966.93
2018-11-01T21:58:01.929Z,76967.94
2018-11-01T22:00:28.900Z,76965.93
2018-11-01T22:02:55.776Z,76974.94
2018-11-01T22:05:22.709Z,76975.94
2018-11-01T22:07:50.361Z,76977.94
2018-11-01T22:10:17.256Z,76973.94
2018-11-01T22:12:44.776Z,76980.94
2018-11-01T22:15:12.307Z,76991.95
2018-11-01T22:17:43.558Z,76992.95
2018-11-01T22:20:10.829Z,77002.97
2018-11-01T22:22:37.730Z,76997.96
2018-11-01T22:25:06.157Z,76999.96
2018-11-01T22:27:33.042Z,77009.97
2018-11-01T22:29:59.904Z,77013.97
2018-11-01T22:32:30.854Z,77022.98
2018-11-01T22:34:57.755Z,77026.98
2018-11-01T22:37:25.604Z,77024.98
2018-11-01T22:39:52.458Z,77032.98
2018-11-01T22:42:20.221Z,77034.98
2018-11-01T22:44:47.077Z,77041.00
2018-11-01T22:47:14.620Z,77045.00
2018-11-01T22:49:42.438Z,77046.00
2018-11-01T22:52:09.602Z,77052.00
2018-11-01T22:54:36.508Z,77053.00
2018-11-01T22:57:03.510Z,77059.01
2018-11-01T22:59:31.262Z,77067.02
2018-11-01T23:01:58.925Z,77071.02
2018-11-01T23:04:25.812Z,77077.02
2018-11-01T23:06:53.496Z,77077.02
2018-11-01T23:09:20.377Z,77089.03
2018-11-01T23:11:48.176Z,77090.03
2018-11-01T23:14:15.930Z,77093.04
2018-11-01T23:16:42.774Z,77085.03
2018-11-01T23:19:09.603Z,77084.03
2018-11-01T23:21:37.317Z,77083.03
2018-11-01T23:24:04.167Z,77079.03
2018-11-01T23:26:31.025Z,77084.03
2018-11-01T23:28:57.886Z,77081.03
2018-11-01T23:31:24.781Z,77087.03
2018-11-01T23:33:51.626Z,77086.03
2018-11-01T23:36:17.961Z,77098.05
2018-11-01T23:38:50.537Z,77097.05
2018-11-01T23:41:23.047Z,77097.05
2018-11-01T23:43:55.504Z,77099.05
2018-11-01T23:46:27.917Z,77102.05
2018-11-01T23:49:05.558Z,77099.05
2018-11-01T23:51:32.432Z,77101.05
2018-11-01T23:53:59.266Z,77108.05
2018-11-01T23:56:26.100Z,77120.06
2018-11-01T23:58:53.819Z,77133.08
